RK56 weather

G 213 Airport
Gyeonggido, South Korea

Public forecast

Using degrees Celsius for public forecast. Weather courtesy of forecast.io.

Closest aviation weather report (METAR) to G 213 Airport

Closest report is Seoul Air Base (K-16), 24.9 nm (46.1 km) SSW. Retrieved 2020/02/21 02:00 UTC (53 minutes ago):

RKSM 210200Z 20004KT 6000 HZ BKN170 08/M00 A3051

Closest aviation forecast (TAF) to G 213 Airport

Forecast is more than 6 hours old.

Closest forecast is Seoul Air Base (K-16), 24.9 nm (46.1 km) SSW. Retrieved 2020/02/20 18:44 UTC (8 hours ago):

TAF RKSM 201700Z 2018/2124 21006KT 9000 BR BKN200 BECMG 2107/2108 21006KT 9000 HZ SCT030 BKN100 BECMG 2110/2111 24006KT 8000 -RA BR BKN030 OVC100 BECMG 2121/2122 27006KT 9999 NSW SCT030 TN01/2021Z TX12/2106Z